Time;durP1;ratioP1;P1;durP2;ratioP2;P2;SDS_P1;SDS_P2;PMS_P1;PMS_P2;Temp;Humidity;BMP_temperature;BMP_pressure;BME280_temperature;BME280_humidity;BME280_pressure;Samples;Min_cycle;Max_cycle;Signal;HPM_P1;HPM_P2
2023/10/20 00:01:18;;;;;;;;;;;;;;;;;;6097094;23;19908;-72
2023/10/20 00:03:43;;;;;;;;;;;20.00;89.00;;;;;;6096581;23;19913;-72
2023/10/20 00:06:09;;;;;;;;;;;20.40;91.70;;;;;;6096385;23;19901;-72
2023/10/20 00:08:35;;;;;;;;;;;20.10;91.50;;;;;;6096320;23;19913;-72
2023/10/20 00:11:04;;;;;;;;;;;20.10;91.50;;;;;;6096242;23;19908;-72
2023/10/20 00:13:30;;;;;;;;;;;20.10;88.70;;;;;;6096292;23;19907;-72
2023/10/20 00:15:55;;;;;;;;;;;20.10;91.50;;;;;;6096341;23;20333;-72
2023/10/20 00:18:22;;;;;;;;;;;20.00;91.50;;;;;;6096868;23;20303;-72
2023/10/20 00:20:47;;;;;;;;;;;20.00;91.30;;;;;;6096418;23;20194;-71
2023/10/20 00:23:14;;;;;;;;;;;20.10;91.50;;;;;;6096277;23;19976;-71
2023/10/20 00:25:40;;;;;;;;;;;20.10;91.40;;;;;;6096362;23;19921;-71
2023/10/20 00:28:06;;;;;;;;;;;20.10;91.60;;;;;;6096256;23;19916;-71
2023/10/20 00:30:31;;;;;;;;;;;20.10;91.60;;;;;;6097212;23;19905;-71
2023/10/20 00:32:57;;;;;;;;;;;20.10;91.50;;;;;;6096540;23;19901;-71
2023/10/20 00:35:23;;;;;;;;;;;20.10;91.60;;;;;;6096884;23;20329;-72
2023/10/20 00:37:51;;;;;;;;;;;20.10;91.50;;;;;;6096962;23;19901;-71
2023/10/20 00:40:16;;;;;;;;;;;20.00;91.40;;;;;;6096721;23;20211;-71
2023/10/20 00:42:43;;;;;;;;;;;20.10;91.40;;;;;;6096824;23;19926;-72
2023/10/20 00:45:09;;;;;;;;;;;20.00;91.60;;;;;;6096893;23;19901;-72
2023/10/20 00:47:37;;;;;;;;;;;20.00;91.20;;;;;;6097678;23;19905;-69
2023/10/20 00:50:04;;;;;;;;;;;20.00;91.70;;;;;;6096525;23;19909;-69
2023/10/20 00:52:30;;;;;;;;;;;20.00;91.20;;;;;;6096638;23;20337;-69
2023/10/20 00:54:57;;;;;;;;;;;20.10;91.50;;;;;;6098653;23;19912;-70
2023/10/20 00:57:23;;;;;;;;;;;19.90;91.50;;;;;;6098674;23;19908;-70
2023/10/20 00:59:49;;;;;;;;;;;20.00;91.70;;;;;;6098688;23;19905;-70
2023/10/20 01:02:15;;;;;;;;;;;20.00;91.40;;;;;;6097918;23;20226;-70
2023/10/20 01:04:41;;;;;;;;;;;20.00;91.50;;;;;;6107791;23;19901;-70
2023/10/20 01:07:07;;;;;;;;;;;20.00;91.50;;;;;;6098287;23;19901;-69
2023/10/20 01:09:33;;;;;;;;;;;20.00;91.60;;;;;;6098505;23;19965;-70
2023/10/20 01:11:58;;;;;;;;;;;19.90;91.50;;;;;;6098559;23;19905;-70
2023/10/20 01:14:24;;;;;;;;;;;20.00;91.60;;;;;;6098706;23;20288;-70
2023/10/20 01:16:50;;;;;;;;;;;19.90;91.30;;;;;;6098223;23;19955;-70
2023/10/20 01:19:16;;;;;;;;;;;20.00;91.80;;;;;;6098504;23;19979;-70
2023/10/20 01:21:42;;;;;;;;;;;19.90;91.50;;;;;;6098505;23;19901;-70
2023/10/20 01:24:08;;;;;;;;;;;19.90;91.60;;;;;;6097887;23;19954;-70
2023/10/20 01:26:34;;;;;;;;;;;20.00;91.20;;;;;;6098460;23;19907;-72
2023/10/20 01:28:59;;;;;;;;;;;20.00;91.50;;;;;;6098417;23;20431;-72
2023/10/20 01:31:25;;;;;;;;;;;20.00;91.50;;;;;;6097936;23;20340;-72
2023/10/20 01:33:51;;;;;;;;;;;20.50;91.70;;;;;;6098411;23;19901;-72
2023/10/20 01:36:17;;;;;;;;;;;19.90;91.60;;;;;;6098293;23;20273;-72
2023/10/20 01:38:44;;;;;;;;;;;19.80;91.70;;;;;;6097872;23;19901;-72
2023/10/20 01:41:10;;;;;;;;;;;20.00;91.60;;;;;;6098113;23;19948;-72
2023/10/20 01:43:36;;;;;;;;;;;19.90;91.70;;;;;;6098844;23;19905;-72
2023/10/20 01:46:02;;;;;;;;;;;19.90;91.70;;;;;;6098214;23;20310;-72
2023/10/20 01:48:28;;;;;;;;;;;19.90;91.60;;;;;;6097700;23;20340;-72
2023/10/20 01:50:55;;;;;;;;;;;19.80;91.60;;;;;;6098165;23;19901;-72
2023/10/20 01:53:20;;;;;;;;;;;19.90;91.60;;;;;;6097641;23;19902;-72
2023/10/20 01:55:49;;;;;;;;;;;19.80;91.60;;;;;;6098096;23;19943;-70
2023/10/20 01:58:19;;;;;;;;;;;19.90;91.70;;;;;;6097935;23;19987;-70
2023/10/20 02:00:48;;;;;;;;;;;19.90;88.60;;;;;;6098013;23;19912;-70
2023/10/20 02:03:14;;;;;;;;;;;19.80;91.40;;;;;;6097491;23;19936;-70
2023/10/20 02:05:40;;;;;;;;;;;19.80;91.60;;;;;;6097464;23;20245;-70
2023/10/20 02:08:08;;;;;;;;;;;19.80;91.50;;;;;;6097956;23;19912;-70
2023/10/20 02:10:37;;;;;;;;;;;19.80;91.10;;;;;;6097775;23;19905;-69
2023/10/20 02:13:03;;;;;;;;;;;19.80;88.40;;;;;;6098451;23;20274;-72
2023/10/20 02:15:29;;;;;;;;;;;19.90;91.50;;;;;;6097816;23;19901;-72
2023/10/20 02:17:58;;;;;;;;;;;19.90;91.80;;;;;;6097887;23;19902;-72
2023/10/20 02:20:25;;;;;;;;;;;19.80;88.50;;;;;;6097418;23;19912;-72
2023/10/20 02:22:52;;;;;;;;;;;19.80;91.50;;;;;;6097433;23;19955;-72
2023/10/20 02:25:18;;;;;;;;;;;20.00;91.70;;;;;;6097731;23;20020;-72
2023/10/20 02:27:45;;;;;;;;;;;19.90;91.60;;;;;;6097712;23;20392;-72
2023/10/20 02:30:12;;;;;;;;;;;19.80;91.60;;;;;;6097148;23;19905;-72
2023/10/20 02:32:38;;;;;;;;;;;19.80;91.00;;;;;;6097207;23;19948;-72
2023/10/20 02:35:03;;;;;;;;;;;19.80;91.60;;;;;;6097115;23;19909;-72
2023/10/20 02:37:29;;;;;;;;;;;19.80;91.10;;;;;;6097042;23;19924;-72
2023/10/20 02:39:54;;;;;;;;;;;19.70;91.70;;;;;;6097663;23;20314;-72
2023/10/20 02:42:20;;;;;;;;;;;19.80;91.70;;;;;;6097032;23;19980;-72
2023/10/20 02:44:45;;;;;;;;;;;19.80;91.60;;;;;;6096998;23;20253;-72
2023/10/20 02:47:11;;;;;;;;;;;19.80;91.70;;;;;;6097045;23;19909;-72
2023/10/20 02:49:36;;;;;;;;;;;19.80;91.70;;;;;;6096932;23;20237;-72
2023/10/20 02:52:02;;;;;;;;;;;19.80;91.70;;;;;;6096892;23;19901;-72
2023/10/20 02:54:27;;;;;;;;;;;19.80;91.80;;;;;;6097080;23;19901;-72
2023/10/20 02:56:53;;;;;;;;;;;19.70;91.60;;;;;;6096915;23;19901;-72
2023/10/20 02:59:19;;;;;;;;;;;19.80;91.70;;;;;;6096832;23;20314;-72
2023/10/20 03:01:44;;;;;;;;;;;19.70;91.40;;;;;;6096529;23;19909;-72
2023/10/20 03:04:10;;;;;;;;;;;19.80;91.70;;;;;;6096870;23;19902;-72
2023/10/20 03:06:35;;;;;;;;;;;19.80;91.80;;;;;;6096876;23;19907;-72
2023/10/20 03:09:01;;;;;;;;;;;19.80;92.00;;;;;;6097246;23;19913;-73
2023/10/20 03:11:26;;;;;;;;;;;19.70;91.60;;;;;;6096817;23;20206;-72
2023/10/20 03:13:52;;;;;;;;;;;19.70;91.70;;;;;;6096794;23;19902;-72
2023/10/20 03:16:17;;;;;;;;;;;19.80;91.70;;;;;;6096462;23;19927;-72
2023/10/20 03:18:43;;;;;;;;;;;19.70;91.70;;;;;;6097378;23;19901;-72
2023/10/20 03:21:10;;;;;;;;;;;19.80;91.70;;;;;;6097023;23;20321;-70
2023/10/20 03:23:36;;;;;;;;;;;19.80;91.70;;;;;;6097284;23;19940;-70
2023/10/20 03:26:09;;;;;;;;;;;19.80;91.70;;;;;;6097167;23;19901;-70
2023/10/20 03:28:35;;;;;;;;;;;19.70;91.80;;;;;;6106626;23;19913;-70
2023/10/20 03:31:02;;;;;;;;;;;19.70;91.70;;;;;;6096962;23;19901;-70
2023/10/20 03:33:28;;;;;;;;;;;19.70;91.60;;;;;;6097017;23;19901;-70
2023/10/20 03:36:04;;;;;;;;;;;19.70;91.70;;;;;;6096494;23;20284;-70
2023/10/20 03:38:30;;;;;;;;;;;19.70;91.70;;;;;;6097681;23;19909;-72
2023/10/20 03:41:06;;;;;;;;;;;19.70;92.10;;;;;;6096671;23;19901;-72
2023/10/20 03:43:34;;;;;;;;;;;19.60;88.70;;;;;;6096812;23;19980;-72
2023/10/20 03:46:00;;;;;;;;;;;19.70;91.80;;;;;;6096959;23;20417;-72
2023/10/20 03:48:29;;;;;;;;;;;19.50;91.50;;;;;;6097051;23;19916;-72
2023/10/20 03:50:55;;;;;;;;;;;19.70;91.70;;;;;;6096795;23;19988;-72
2023/10/20 03:53:27;;;;;;;;;;;19.70;91.60;;;;;;6096691;23;19907;-72
2023/10/20 03:56:00;;;;;;;;;;;19.60;91.40;;;;;;6106508;23;20008;-72
2023/10/20 03:58:29;;;;;;;;;;;19.60;88.80;;;;;;6096753;23;19923;-72
2023/10/20 04:00:57;;;;;;;;;;;19.70;88.80;;;;;;6096438;23;20289;-72
2023/10/20 04:03:23;;;;;;;;;;;19.60;91.50;;;;;;6096414;23;19913;-72
2023/10/20 04:05:48;;;;;;;;;;;19.70;91.80;;;;;;6096960;23;19901;-70
2023/10/20 04:08:16;;;;;;;;;;;19.70;91.70;;;;;;6096938;23;19944;-69
2023/10/20 04:10:42;;;;;;;;;;;19.70;91.70;;;;;;6096902;23;19929;-70
2023/10/20 04:13:09;;;;;;;;;;;19.60;91.60;;;;;;6096562;23;19925;-69
2023/10/20 04:15:36;;;;;;;;;;;19.60;91.70;;;;;;6096597;23;19940;-69
2023/10/20 04:18:04;;;;;;;;;;;19.70;91.60;;;;;;6096404;23;19917;-72
2023/10/20 04:20:29;;;;;;;;;;;19.70;91.60;;;;;;6096417;23;20310;-72
2023/10/20 04:22:55;;;;;;;;;;;19.60;91.60;;;;;;6096895;23;19906;-72
2023/10/20 04:25:22;;;;;;;;;;;19.60;91.80;;;;;;6096940;23;20280;-72
2023/10/20 04:27:57;;;;;;;;;;;19.70;91.80;;;;;;6097850;23;19901;-72
2023/10/20 05:07:51;;;;;;;;;;;19.60;91.90;;;;;;6108076;23;20280;-70
2023/10/20 05:10:18;;;;;;;;;;;19.50;92.00;;;;;;6098441;23;19993;-70
2023/10/20 05:12:43;;;;;;;;;;;19.60;92.10;;;;;;6073164;23;19973;-70
2023/10/20 05:15:10;;;;;;;;;;;19.60;92.00;;;;;;6073084;23;19906;-69
2023/10/20 05:17:36;;;;;;;;;;;19.60;91.20;;;;;;6072456;23;20306;-70
2023/10/20 05:20:05;;;;;;;;;;;19.70;92.00;;;;;;6073180;23;20229;-70
2023/10/20 05:22:32;;;;;;;;;;;19.80;91.90;;;;;;6073701;23;19912;-72
2023/10/20 05:24:58;;;;;;;;;;;19.60;92.20;;;;;;6073223;23;19909;-72
2023/10/20 05:27:24;;;;;;;;;;;19.60;92.00;;;;;;6072644;23;19905;-72
2023/10/20 05:29:50;;;;;;;;;;;19.60;92.00;;;;;;6098065;23;19909;-72
2023/10/20 05:32:17;;;;;;;;;;;19.60;92.10;;;;;;6098422;23;20186;-72
2023/10/20 05:34:43;;;;;;;;;;;19.60;92.10;;;;;;6098359;23;19936;-72
2023/10/20 05:37:09;;;;;;;;;;;19.60;92.20;;;;;;6097872;23;19956;-72
2023/10/20 05:39:35;;;;;;;;;;;19.50;92.20;;;;;;6097478;23;20313;-72
2023/10/20 05:42:04;;;;;;;;;;;19.50;92.00;;;;;;6097960;23;19901;-72
2023/10/20 05:44:33;;;;;;;;;;;19.60;92.20;;;;;;6097997;23;19909;-72
2023/10/20 05:46:59;;;;;;;;;;;19.50;89.50;;;;;;6098188;23;19901;-72
2023/10/20 05:49:26;;;;;;;;;;;19.50;91.80;;;;;;6072937;23;19909;-70
2023/10/20 05:51:52;;;;;;;;;;;19.60;91.90;;;;;;6098037;23;19901;-69
2023/10/20 05:54:18;;;;;;;;;;;19.50;92.00;;;;;;6098170;23;19901;-71
2023/10/20 05:56:44;;;;;;;;;;;19.50;92.10;;;;;;6098010;23;19932;-69
2023/10/20 05:59:10;;;;;;;;;;;19.50;92.10;;;;;;6098140;23;19923;-70
2023/10/20 06:01:36;;;;;;;;;;;19.60;92.00;;;;;;6097517;23;19901;-72
2023/10/20 06:04:03;;;;;;;;;;;19.50;92.10;;;;;;6097472;23;19913;-72
2023/10/20 06:06:30;;;;;;;;;;;19.60;91.90;;;;;;6097559;23;19931;-73
2023/10/20 06:08:56;;;;;;;;;;;19.50;92.30;;;;;;6097525;23;19909;-73
2023/10/20 06:11:21;;;;;;;;;;;19.70;92.30;;;;;;6095811;23;19901;-73
2023/10/20 06:13:47;;;;;;;;;;;19.60;92.30;;;;;;6097373;23;19901;-72
2023/10/20 06:16:12;;;;;;;;;;;19.60;92.30;;;;;;6097359;23;19984;-73
2023/10/20 06:18:39;;;;;;;;;;;19.60;92.10;;;;;;6097295;23;19908;-70
2023/10/20 06:21:05;;;;;;;;;;;19.60;92.30;;;;;;6097897;23;20224;-72
2023/10/20 06:23:32;;;;;;;;;;;19.00;92.10;;;;;;6097904;23;19905;-73
2023/10/20 06:25:58;;;;;;;;;;;19.60;92.30;;;;;;6097650;23;19909;-72
2023/10/20 06:28:24;;;;;;;;;;;19.50;92.00;;;;;;6097612;23;19916;-73
2023/10/20 06:30:51;;;;;;;;;;;19.50;92.10;;;;;;6099960;23;20229;-73
2023/10/20 06:33:16;;;;;;;;;;;19.60;92.20;;;;;;6097186;23;20268;-74
2023/10/20 06:35:50;;;;;;;;;;;19.50;92.20;;;;;;6097094;23;20282;-73
2023/10/20 06:38:29;;;;;;;;;;;19.50;92.10;;;;;;6107296;23;19957;-71
2023/10/20 06:41:05;;;;;;;;;;;19.60;89.70;;;;;;6094637;23;19905;-70
2023/10/20 06:43:31;;;;;;;;;;;19.60;92.10;;;;;;6097229;23;19901;-71
2023/10/20 06:45:57;;;;;;;;;;;19.60;92.10;;;;;;6097216;23;19901;-72
2023/10/20 06:48:23;;;;;;;;;;;19.50;92.20;;;;;;6096917;23;20318;-72
2023/10/20 06:50:49;;;;;;;;;;;19.60;92.20;;;;;;6097027;23;19901;-72
2023/10/20 06:53:15;;;;;;;;;;;19.50;92.00;;;;;;6097057;23;19984;-71
2023/10/20 06:55:41;;;;;;;;;;;19.50;92.00;;;;;;6100282;23;19936;-71
2023/10/20 06:58:08;;;;;;;;;;;19.50;92.20;;;;;;6096935;23;19908;-73
2023/10/20 07:00:35;;;;;;;;;;;19.50;92.10;;;;;;6096701;23;19983;-72
2023/10/20 07:03:01;;;;;;;;;;;19.50;91.90;;;;;;6096446;23;20330;-73
2023/10/20 07:05:27;;;;;;;;;;;19.50;92.10;;;;;;6097091;23;19908;-72
2023/10/20 07:07:52;;;;;;;;;;;19.50;92.10;;;;;;6097181;23;19909;-72
2023/10/20 07:10:21;;;;;;;;;;;19.50;92.10;;;;;;6096597;23;19909;-72
2023/10/20 07:12:48;;;;;;;;;;;19.50;92.20;;;;;;6096629;23;19901;-72
2023/10/20 07:15:15;;;;;;;;;;;19.50;92.10;;;;;;6097213;23;20335;-72
2023/10/20 07:17:42;;;;;;;;;;;19.50;91.90;;;;;;6096659;23;20394;-73
2023/10/20 07:20:08;;;;;;;;;;;19.50;92.10;;;;;;6097094;23;19901;-72
2023/10/20 07:22:34;;;;;;;;;;;19.50;91.30;;;;;;6096483;23;20238;-72
2023/10/20 07:24:59;;;;;;;;;;;19.50;92.00;;;;;;6097174;23;20272;-73
2023/10/20 07:27:26;;;;;;;;;;;19.50;92.10;;;;;;6097159;23;19908;-74
2023/10/20 07:29:52;;;;;;;;;;;19.50;92.10;;;;;;6096956;23;19909;-73
2023/10/20 07:32:19;;;;;;;;;;;19.50;92.00;;;;;;6097258;23;19996;-73
2023/10/20 07:34:45;;;;;;;;;;;19.50;92.20;;;;;;6096524;23;20325;-73
2023/10/20 07:37:11;;;;;;;;;;;19.60;92.00;;;;;;6096663;23;19929;-73
2023/10/20 07:39:37;;;;;;;;;;;19.50;92.10;;;;;;6097050;23;19902;-73
2023/10/20 07:42:03;;;;;;;;;;;19.50;92.20;;;;;;6096662;23;20376;-73
2023/10/20 07:44:29;;;;;;;;;;;19.40;91.90;;;;;;6096597;23;19943;-73
2023/10/20 07:46:55;;;;;;;;;;;19.50;92.00;;;;;;6096555;23;19905;-74
2023/10/20 07:49:21;;;;;;;;;;;19.40;91.90;;;;;;6096390;23;19992;-74
2023/10/20 07:51:47;;;;;;;;;;;19.50;92.10;;;;;;6096801;23;19909;-75
2023/10/20 07:54:14;;;;;;;;;;;19.40;92.00;;;;;;6097279;23;19908;-72
2023/10/20 07:56:40;;;;;;;;;;;19.50;91.80;;;;;;6096794;23;19901;-72
2023/10/20 07:59:07;;;;;;;;;;;19.40;92.10;;;;;;6071507;23;19924;-72
2023/10/20 08:01:34;;;;;;;;;;;19.40;91.90;;;;;;6096440;23;19908;-73
2023/10/20 08:04:02;;;;;;;;;;;19.40;92.00;;;;;;6096151;23;20337;-72
2023/10/20 08:06:27;;;;;;;;;;;19.50;92.00;;;;;;6096214;23;20270;-72
2023/10/20 08:08:53;;;;;;;;;;;19.50;92.00;;;;;;6096386;23;19951;-72
2023/10/20 08:11:19;;;;;;;;;;;19.40;91.90;;;;;;6096413;23;19980;-72
2023/10/20 08:13:50;;;;;;;;;;;19.50;92.00;;;;;;6096847;23;19913;-72
2023/10/20 08:16:18;;;;;;;;;;;19.40;91.90;;;;;;6081802;23;19911;-72
2023/10/20 08:18:44;;;;;;;;;;;19.50;92.10;;;;;;6071126;23;19905;-72
2023/10/20 08:21:10;;;;;;;;;;;19.40;92.00;;;;;;6071310;23;19944;-73
2023/10/20 08:23:37;;;;;;;;;;;19.40;91.90;;;;;;6096279;23;19976;-73
2023/10/20 08:26:05;;;;;;;;;;;19.30;92.00;;;;;;6096707;23;19905;-73
2023/10/20 08:28:31;;;;;;;;;;;19.40;92.00;;;;;;6095964;23;19920;-73
2023/10/20 08:31:07;;;;;;;;;;;19.60;92.00;;;;;;6096080;23;19901;-73
2023/10/20 08:33:33;;;;;;;;;;;19.30;89.30;;;;;;6096133;23;19907;-74
2023/10/20 08:36:00;;;;;;;;;;;19.40;92.10;;;;;;6096049;23;19902;-75
2023/10/20 08:38:26;;;;;;;;;;;19.40;91.90;;;;;;6096635;23;19907;-73
2023/10/20 08:40:51;;;;;;;;;;;19.40;91.90;;;;;;6096677;23;20283;-73
2023/10/20 08:43:17;;;;;;;;;;;19.40;92.00;;;;;;6100320;23;19917;-77
2023/10/20 08:45:43;;;;;;;;;;;19.40;91.80;;;;;;6096042;23;19902;-72
2023/10/20 08:48:08;;;;;;;;;;;19.30;91.80;;;;;;6096092;23;19908;-73
2023/10/20 08:50:35;;;;;;;;;;;19.40;91.90;;;;;;6096061;23;19912;-74
2023/10/20 08:53:01;;;;;;;;;;;19.30;92.00;;;;;;6096186;23;20337;-75
2023/10/20 08:55:27;;;;;;;;;;;19.30;91.80;;;;;;6096058;23;19905;-73
2023/10/20 08:57:52;;;;;;;;;;;19.40;91.80;;;;;;6096099;23;19906;-71
2023/10/20 09:00:21;;;;;;;;;;;19.20;91.80;;;;;;6095983;23;19908;-71
2023/10/20 09:02:47;;;;;;;;;;;19.30;91.60;;;;;;6095666;23;19948;-71
2023/10/20 09:05:19;;;;;;;;;;;19.30;91.90;;;;;;6095950;23;19901;-71
2023/10/20 09:07:53;;;;;;;;;;;19.20;91.80;;;;;;6106207;23;19912;-71
2023/10/20 09:10:19;;;;;;;;;;;19.30;89.00;;;;;;6096393;23;20004;-72
2023/10/20 09:12:45;;;;;;;;;;;19.30;91.90;;;;;;6096817;23;20320;-72
2023/10/20 09:15:11;;;;;;;;;;;19.30;91.80;;;;;;6097996;23;20221;-73
2023/10/20 09:17:37;;;;;;;;;;;19.60;91.80;;;;;;6098193;23;19901;-73
2023/10/20 09:20:04;;;;;;;;;;;19.30;91.80;;;;;;6097781;23;19943;-76
2023/10/20 09:22:29;;;;;;;;;;;19.30;91.90;;;;;;6107510;23;19968;-72
2023/10/20 09:24:55;;;;;;;;;;;19.30;91.80;;;;;;6097764;23;19908;-74
2023/10/20 09:27:22;;;;;;;;;;;19.30;91.70;;;;;;6097721;23;19901;-79
2023/10/20 09:29:49;;;;;;;;;;;19.30;91.70;;;;;;6098198;23;19916;-71
2023/10/20 09:32:15;;;;;;;;;;;19.00;92.00;;;;;;6097773;23;19912;-71
2023/10/20 09:34:40;;;;;;;;;;;19.20;91.70;;;;;;6097761;23;19901;-72
2023/10/20 09:37:06;;;;;;;;;;;19.30;92.00;;;;;;6097363;23;19902;-72
2023/10/20 09:39:38;;;;;;;;;;;19.20;91.70;;;;;;6098049;23;19902;-72
2023/10/20 09:42:05;;;;;;;;;;;19.20;91.70;;;;;;6107643;23;19906;-72
2023/10/20 09:44:41;;;;;;;;;;;19.30;91.70;;;;;;6107212;23;19907;-72
2023/10/20 09:47:12;;;;;;;;;;;19.20;88.80;;;;;;6107146;23;19901;-72
2023/10/20 09:49:39;;;;;;;;;;;19.20;91.80;;;;;;6107159;23;20385;-72
2023/10/20 09:52:05;;;;;;;;;;;19.30;91.80;;;;;;6097701;23;19912;-72
2023/10/20 09:54:32;;;;;;;;;;;19.20;91.60;;;;;;6097952;23;19901;-73
2023/10/20 09:56:58;;;;;;;;;;;19.20;91.80;;;;;;6097270;23;19909;-72
2023/10/20 09:59:24;;;;;;;;;;;19.20;91.60;;;;;;6097394;23;19901;-72
2023/10/20 10:01:51;;;;;;;;;;;19.20;91.60;;;;;;6097593;23;19901;-72
2023/10/20 10:04:23;;;;;;;;;;;19.20;91.90;;;;;;6097321;23;19909;-71
2023/10/20 10:06:49;;;;;;;;;;;19.20;91.90;;;;;;6097483;23;19901;-73
2023/10/20 10:09:15;;;;;;;;;;;19.20;91.60;;;;;;6097427;23;20329;-72
2023/10/20 10:11:42;;;;;;;;;;;19.20;91.60;;;;;;6098093;23;19957;-72
2023/10/20 10:14:16;;;;;;;;;;;19.20;91.80;;;;;;6097451;23;20218;-72
2023/10/20 10:17:01;;;;;;;;;;;19.20;91.70;;;;;;6107176;23;20322;-72
2023/10/20 10:19:27;;;;;;;;;;;19.10;88.40;;;;;;6097570;23;19908;-73
2023/10/20 10:21:54;;;;;;;;;;;19.20;91.70;;;;;;6097085;23;19948;-72
2023/10/20 10:24:23;;;;;;;;;;;19.10;91.60;;;;;;6097006;23;19901;-76
2023/10/20 10:26:52;;;;;;;;;;;19.10;88.60;;;;;;6096872;23;20266;-76
2023/10/20 10:29:41;;;;;;;;;;;20.00;91.90;;;;;;6096882;23;19916;-76
2023/10/20 10:32:12;;;;;;;;;;;19.10;88.40;;;;;;6096965;23;19901;-74
2023/10/20 10:34:42;;;;;;;;;;;19.10;88.50;;;;;;6071334;23;20395;-73
2023/10/20 10:37:08;;;;;;;;;;;19.10;88.50;;;;;;6096995;23;19902;-73
2023/10/20 10:39:33;;;;;;;;;;;19.10;91.60;;;;;;6071345;23;20214;-75
2023/10/20 10:42:03;;;;;;;;;;;19.20;91.50;;;;;;6096865;23;19901;-73
2023/10/20 10:44:32;;;;;;;;;;;19.10;88.50;;;;;;6096988;23;19932;-73
2023/10/20 10:46:57;;;;;;;;;;;19.00;91.70;;;;;;6097369;23;20214;-72
2023/10/20 10:49:23;;;;;;;;;;;19.10;91.80;;;;;;6097295;23;19916;-71
2023/10/20 10:51:50;;;;;;;;;;;19.10;91.60;;;;;;6096646;23;20325;-72
2023/10/20 10:54:17;;;;;;;;;;;19.00;91.70;;;;;;6097214;23;20032;-70
2023/10/20 10:56:43;;;;;;;;;;;19.00;91.60;;;;;;6096707;23;20369;-72
2023/10/20 10:59:09;;;;;;;;;;;18.70;91.50;;;;;;6097426;23;19976;-72
2023/10/20 11:01:36;;;;;;;;;;;18.90;91.40;;;;;;6096841;23;19905;-73
2023/10/20 11:04:03;;;;;;;;;;;19.00;91.70;;;;;;6096583;23;19913;-73
2023/10/20 11:06:32;;;;;;;;;;;18.90;91.40;;;;;;6096784;23;19901;-73
2023/10/20 11:09:00;;;;;;;;;;;18.90;91.40;;;;;;6096520;23;19917;-73
2023/10/20 11:11:26;;;;;;;;;;;19.00;90.40;;;;;;6096874;23;20289;-73
2023/10/20 11:13:52;;;;;;;;;;;19.00;91.60;;;;;;6096346;23;19901;-72
2023/10/20 11:16:18;;;;;;;;;;;18.90;91.40;;;;;;6096978;23;20008;-72
2023/10/20 11:18:44;;;;;;;;;;;18.80;91.60;;;;;;6096542;23;19908;-73
2023/10/20 11:21:13;;;;;;;;;;;18.90;91.60;;;;;;6097001;23;20275;-73
2023/10/20 11:23:39;;;;;;;;;;;19.00;88.50;;;;;;6096856;23;19980;-73
2023/10/20 11:26:17;;;;;;;;;;;18.90;91.70;;;;;;6096863;23;19905;-73
2023/10/20 11:28:44;;;;;;;;;;;19.10;88.80;;;;;;6096520;23;20055;-73
2023/10/20 11:31:11;;;;;;;;;;;18.90;91.50;;;;;;6096282;23;19908;-74
2023/10/20 11:33:37;;;;;;;;;;;18.80;91.60;;;;;;6096788;23;19964;-72
2023/10/20 11:36:04;;;;;;;;;;;18.90;91.60;;;;;;6096396;23;19982;-72
2023/10/20 11:38:32;;;;;;;;;;;18.90;91.00;;;;;;6096150;23;19987;-72
2023/10/20 11:40:59;;;;;;;;;;;18.90;91.50;;;;;;6096403;23;20335;-72
2023/10/20 11:43:25;;;;;;;;;;;18.80;91.80;;;;;;6096369;23;19905;-71
2023/10/20 11:45:51;;;;;;;;;;;18.90;91.50;;;;;;6096729;23;19908;-72
2023/10/20 11:48:17;;;;;;;;;;;18.90;91.60;;;;;;6096676;23;20182;-72
2023/10/20 11:50:43;;;;;;;;;;;18.90;91.60;;;;;;6096673;23;19981;-71
2023/10/20 11:53:09;;;;;;;;;;;18.90;91.60;;;;;;6096703;23;19909;-73
2023/10/20 11:55:35;;;;;;;;;;;18.90;91.50;;;;;;6096265;23;20323;-73
2023/10/20 11:58:04;;;;;;;;;;;18.80;91.50;;;;;;6096556;23;19901;-73
2023/10/20 12:00:30;;;;;;;;;;;18.90;90.90;;;;;;6096056;23;20400;-73
2023/10/20 12:02:56;;;;;;;;;;;18.80;91.50;;;;;;6095807;23;19949;-73
2023/10/20 12:05:22;;;;;;;;;;;18.80;91.70;;;;;;6096211;23;19901;-73
2023/10/20 12:07:47;;;;;;;;;;;18.80;91.70;;;;;;6096630;23;19901;-73
2023/10/20 12:10:13;;;;;;;;;;;18.80;91.70;;;;;;6096492;23;19909;-73
2023/10/20 12:12:39;;;;;;;;;;;18.80;91.60;;;;;;6096585;23;19957;-73
2023/10/20 12:15:07;;;;;;;;;;;18.80;91.70;;;;;;6096217;23;19988;-74
2023/10/20 12:17:33;;;;;;;;;;;18.80;91.20;;;;;;6096872;23;19901;-73
2023/10/20 12:19:59;;;;;;;;;;;18.80;91.80;;;;;;6096516;23;19902;-73
2023/10/20 12:22:28;;;;;;;;;;;18.80;91.80;;;;;;6096579;23;19948;-73
2023/10/20 12:24:54;;;;;;;;;;;18.90;90.30;;;;;;6096008;23;19908;-73
2023/10/20 12:27:21;;;;;;;;;;;18.80;91.80;;;;;;6096647;23;19902;-75
2023/10/20 12:29:46;;;;;;;;;;;18.80;91.80;;;;;;6096501;23;19949;-73
2023/10/20 12:32:12;;;;;;;;;;;18.80;91.80;;;;;;6096552;23;19902;-73
2023/10/20 12:34:38;;;;;;;;;;;18.80;91.90;;;;;;6096090;23;19901;-73
2023/10/20 12:37:05;;;;;;;;;;;18.80;91.60;;;;;;6096528;23;19921;-73
2023/10/20 12:39:33;;;;;;;;;;;18.80;91.80;;;;;;6095913;23;19902;-73
2023/10/20 12:42:04;;;;;;;;;;;18.70;89.60;;;;;;6095769;23;19901;-73
2023/10/20 12:44:30;;;;;;;;;;;18.90;90.00;;;;;;6105676;23;20015;-73
2023/10/20 12:46:56;;;;;;;;;;;18.90;91.80;;;;;;6105662;23;19901;-75
2023/10/20 12:49:22;;;;;;;;;;;18.80;91.90;;;;;;6097144;23;19909;-73
2023/10/20 12:51:48;;;;;;;;;;;18.80;91.80;;;;;;6098111;23;19948;-73
2023/10/20 12:54:14;;;;;;;;;;;18.80;91.80;;;;;;6098277;23;19979;-73
2023/10/20 12:56:40;;;;;;;;;;;18.80;91.90;;;;;;6098372;23;19905;-72
2023/10/20 12:59:06;;;;;;;;;;;19.00;91.70;;;;;;6098383;23;19901;-72
2023/10/20 13:01:32;;;;;;;;;;;18.90;91.80;;;;;;6097301;23;20321;-72
2023/10/20 13:03:59;;;;;;;;;;;18.70;91.80;;;;;;6097716;23;20036;-72
2023/10/20 13:06:25;;;;;;;;;;;18.80;91.80;;;;;;6098226;23;19905;-74
2023/10/20 13:08:51;;;;;;;;;;;18.80;91.90;;;;;;6098215;23;19909;-76
2023/10/20 13:11:17;;;;;;;;;;;18.80;91.90;;;;;;6097507;23;19901;-75
2023/10/20 13:13:43;;;;;;;;;;;18.80;91.80;;;;;;6097890;23;19901;-75
2023/10/20 13:16:09;;;;;;;;;;;18.70;91.70;;;;;;6097733;23;19901;-75
2023/10/20 13:18:35;;;;;;;;;;;18.70;91.90;;;;;;6098102;23;19936;-76
2023/10/20 13:21:07;;;;;;;;;;;18.70;91.90;;;;;;6098018;23;19901;-75
2023/10/20 13:23:33;;;;;;;;;;;18.80;89.10;;;;;;6097898;23;19924;-76
2023/10/20 13:26:05;;;;;;;;;;;19.40;92.10;;;;;;6098077;23;19908;-75
2023/10/20 13:28:32;;;;;;;;;;;18.80;89.20;;;;;;6097683;23;19905;-76
2023/10/20 13:30:59;;;;;;;;;;;18.70;91.70;;;;;;6097983;23;19941;-75
2023/10/20 13:33:25;;;;;;;;;;;18.80;92.10;;;;;;6097497;23;19952;-76
2023/10/20 13:35:51;;;;;;;;;;;19.00;92.00;;;;;;6097982;23;19933;-75
2023/10/20 13:38:16;;;;;;;;;;;18.80;92.00;;;;;;6097256;23;19988;-75
2023/10/20 13:40:42;;;;;;;;;;;18.70;92.00;;;;;;6098016;23;19905;-76
2023/10/20 13:43:08;;;;;;;;;;;18.80;92.00;;;;;;6098299;23;20285;-75
2023/10/20 13:45:34;;;;;;;;;;;18.70;91.90;;;;;;6098148;23;19901;-75
2023/10/20 13:48:00;;;;;;;;;;;18.70;92.10;;;;;;6097544;23;19902;-75
2023/10/20 13:50:26;;;;;;;;;;;18.70;92.00;;;;;;6097854;23;19909;-75
2023/10/20 13:52:51;;;;;;;;;;;18.80;92.00;;;;;;6097882;23;19901;-75
2023/10/20 13:55:17;;;;;;;;;;;18.80;92.00;;;;;;6097339;23;19908;-75
2023/10/20 13:57:42;;;;;;;;;;;18.90;92.00;;;;;;6097374;23;19913;-75
2023/10/20 14:00:08;;;;;;;;;;;18.80;92.10;;;;;;6096814;23;19901;-75
2023/10/20 14:02:34;;;;;;;;;;;18.80;91.80;;;;;;6097001;23;19913;-75
2023/10/20 14:04:59;;;;;;;;;;;18.80;92.00;;;;;;6097956;23;19901;-75
2023/10/20 14:07:25;;;;;;;;;;;18.80;92.20;;;;;;6097246;23;20317;-75
2023/10/20 14:09:50;;;;;;;;;;;18.70;92.00;;;;;;6097017;23;19909;-75
2023/10/20 14:12:16;;;;;;;;;;;18.80;92.10;;;;;;6097654;23;20368;-71
2023/10/20 14:14:42;;;;;;;;;;;18.70;92.00;;;;;;6097644;23;19901;-82
2023/10/20 14:17:09;;;;;;;;;;;18.70;92.00;;;;;;6097694;23;19929;-73
2023/10/20 14:19:35;;;;;;;;;;;18.80;92.10;;;;;;6071892;23;19932;-73
2023/10/20 14:22:01;;;;;;;;;;;18.80;92.00;;;;;;6097663;23;19908;-73
2023/10/20 14:24:27;;;;;;;;;;;18.70;92.10;;;;;;6097066;23;19957;-73
2023/10/20 14:26:54;;;;;;;;;;;18.70;92.10;;;;;;6097170;23;19901;-73
2023/10/20 14:29:20;;;;;;;;;;;18.80;92.10;;;;;;6097252;23;20210;-76
2023/10/20 14:31:46;;;;;;;;;;;18.70;92.00;;;;;;6097162;23;19948;-76
2023/10/20 14:34:12;;;;;;;;;;;18.80;92.20;;;;;;6097510;23;20406;-76
2023/10/20 14:36:39;;;;;;;;;;;18.80;92.10;;;;;;6097168;23;19901;-74
2023/10/20 14:39:05;;;;;;;;;;;19.00;92.20;;;;;;6097463;23;19905;-75
2023/10/20 14:41:31;;;;;;;;;;;18.80;92.20;;;;;;6072138;23;19909;-75
2023/10/20 14:43:57;;;;;;;;;;;18.80;92.50;;;;;;6097432;23;20232;-74
2023/10/20 14:46:22;;;;;;;;;;;18.80;92.10;;;;;;6097310;23;19971;-75
2023/10/20 14:48:48;;;;;;;;;;;18.80;92.20;;;;;;6097065;23;19916;-72
2023/10/20 14:51:14;;;;;;;;;;;18.80;92.10;;;;;;6097012;23;19901;-72
2023/10/20 14:53:40;;;;;;;;;;;18.80;92.20;;;;;;6096666;23;19901;-72